Aérodrome :
LOGIN :

S'inscrire | Disclaimer

   EN    FR    IT 

 










Légende :    VFR   VFR Marginal   IFR   IFR Intensif   IFR Très Intensif
Visi : 
Plafond : 
>= 8 km
>= 3000ft
5 à 8 km
1000 à 3000 ft
1500m à 5 km
500 à 1000 ft
800 à 1500m
200 à 500 ft
< 800m
< 200 ft
Symboles :   Orages  Brouillard  Fortes neiges  Fortes précipitations  Vent > 20 kt
SIGMETs :   Divers  Orages  Givrage  Turbulence  Onde Orograph.  Cendres Volcan.






- Altitude de l'aérodrome : 13 ft
- Code IATA : OST


EBOS - Oostend bruges Int.

DERNIER METAR :
  • 150520Z 25023G34KT 9999 FEW017 08/04 Q0993 NOSIG

METARs EXPIRÉS :
  • 150450Z 24018KT 9999 FEW017 08/03 Q0992 TEMPO 25025G38KT
  • 150420Z 24018KT 9999 FEW017 08/04 Q0992 TEMPO 25025G38KT
  • 150350Z 24020KT 9999 FEW017 08/05 Q0991 TEMPO 25025G38KT 4000 SHRA
  • 150320Z 24017KT 9999 SCT013TCU BKN022 08/06 Q0991 RESHRA TEMPO 25025G38KT 4000 SHRA
  • 150250Z 23020G30KT 9999 -SHRA SCT013TCU BKN022 08/06 Q0990 NOSIG

TAF COR TAF EBOS
Valide du 15 à 00h jusqu'au 16 à 06h UTC


142349Z 1500/1606 18015G25KT 9999 FEW025TCU SCT040
BECMG 1502/1504 24020G35KT
PROB40
TEMPO 1502/1504 4000 SHRA RA BKN014
PROB30
TEMPO 1503/1506 25028G50KT
TEMPO 1510/1517 4000 SHRAGS FEW020CB
PROB30
TEMPO 1512/1516 TS
BECMG 1518/1520 18014KT



MET'MAP, la Météo Aéronautique d'un coup d'oeil ! - Copyright ORBIFLY Décembre 2007 - Disclaimer

ORBIFLY MET'MAP TEAM :

Programmation & Développement : Alexandra Zaïnal
Sur une idée originale de : Baudouin d'Aumeries
Assistance à la programmation : Marc-Olivier Méhu
Soutien technique & logistique : Manuel Goepfert

Contact : metmap@orbifly.com




SOURCES & CREDITS :

   NOAA